Time;durP1;ratioP1;P1;durP2;ratioP2;P2;SDS_P1;SDS_P2;PMS_P1;PMS_P2;Temp;Humidity;BMP_temperature;BMP_pressure;BME280_temperature;BME280_humidity;BME280_pressure;Samples;Min_cycle;Max_cycle;Signal;HPM_P1;HPM_P2
2023/07/21 00:00:59;;;;;;;6.63;3.78;;;17.70;99.80;;;;;;5035636;28;20041;-53
2023/07/21 00:03:26;;;;;;;8.70;3.38;;;17.70;99.90;;;;;;5039181;28;20056;-53
2023/07/21 00:05:53;;;;;;;5.55;3.80;;;17.70;99.90;;;;;;5041622;28;20373;-52
2023/07/21 00:08:20;;;;;;;6.75;3.05;;;17.80;99.90;;;;;;5036197;28;20102;-53
2023/07/21 00:10:47;;;;;;;10.23;3.40;;;17.70;99.90;;;;;;5039668;28;20052;-49
2023/07/21 00:13:14;;;;;;;6.38;3.67;;;17.70;99.90;;;;;;5036547;28;20037;-54
2023/07/21 00:15:42;;;;;;;4.78;3.45;;;17.70;99.90;;;;;;5043295;28;20076;-49
2023/07/21 00:18:09;;;;;;;6.78;3.63;;;17.70;99.90;;;;;;5039529;28;20045;-51
2023/07/21 00:20:36;;;;;;;7.18;3.55;;;17.60;99.90;;;;;;5030139;28;20523;-54
2023/07/21 00:23:02;;;;;;;7.10;3.72;;;17.60;99.90;;;;;;5035451;28;20053;-54
2023/07/21 00:25:30;;;;;;;5.57;3.47;;;17.50;99.90;;;;;;5043875;28;20539;-52
2023/07/21 00:27:56;;;;;;;6.88;3.17;;;17.50;99.90;;;;;;5033233;28;20057;-53
2023/07/21 00:30:23;;;;;;;8.52;3.83;;;17.50;99.90;;;;;;5045371;28;20151;-54
2023/07/21 00:32:50;;;;;;;6.82;3.85;;;17.50;99.90;;;;;;5039933;28;20435;-55
2023/07/21 00:35:17;;;;;;;7.28;3.67;;;17.50;99.90;;;;;;5028647;28;20053;-55
2023/07/21 00:37:44;;;;;;;6.72;3.30;;;17.50;99.90;;;;;;5038415;28;20045;-53
2023/07/21 00:40:31;;;;;;;4.60;3.75;;;17.50;99.90;;;;;;5031712;28;20229;-52
2023/07/21 00:42:58;;;;;;;7.18;3.53;;;17.50;99.90;;;;;;5044086;28;20047;-50
2023/07/21 00:45:25;;;;;;;8.13;3.75;;;17.50;99.90;;;;;;5050429;28;20515;-55
2023/07/21 00:47:52;;;;;;;9.77;4.10;;;17.50;99.90;;;;;;5040603;28;20077;-51
2023/07/21 00:50:19;;;;;;;7.75;3.53;;;17.50;99.90;;;;;;5035506;28;20380;-52
2023/07/21 00:52:46;;;;;;;5.20;3.35;;;17.50;99.90;;;;;;5038158;28;20049;-54
2023/07/21 00:55:12;;;;;;;4.30;3.17;;;17.40;99.90;;;;;;5040883;28;20063;-54
2023/07/21 00:57:39;;;;;;;6.80;4.32;;;17.40;99.90;;;;;;5040517;28;20088;-54
2023/07/21 01:00:12;;;;;;;6.30;3.60;;;17.40;99.90;;;;;;5040764;28;20049;-53
2023/07/21 01:02:40;;;;;;;5.75;3.55;;;17.30;99.90;;;;;;4688371;28;9999949;-50
2023/07/21 01:05:07;;;;;;;7.15;4.10;;;17.40;99.90;;;;;;5042056;28;20057;-53
2023/07/21 01:07:33;;;;;;;6.43;4.10;;;17.30;99.90;;;;;;5034990;28;20049;-54
2023/07/21 01:10:01;;;;;;;10.48;4.30;;;17.30;99.90;;;;;;5026492;28;20064;-54
2023/07/21 01:12:28;;;;;;;7.80;5.32;;;17.20;99.90;;;;;;5034843;28;20563;-56
2023/07/21 01:14:55;;;;;;;8.18;3.92;;;17.20;99.90;;;;;;5038382;28;20151;-55
2023/07/21 01:17:22;;;;;;;6.40;3.38;;;17.30;99.90;;;;;;5047329;28;20049;-53
2023/07/21 01:19:52;;;;;;;6.53;4.13;;;17.10;99.90;;;;;;5041493;28;20048;-53
2023/07/21 01:22:21;;;;;;;6.88;3.85;;;17.00;99.90;;;;;;5031375;28;20037;-50
2023/07/21 01:24:51;;;;;;;6.85;3.90;;;16.90;99.90;;;;;;5035269;28;20054;-54
2023/07/21 01:27:22;;;;;;;8.88;4.03;;;16.90;99.90;;;;;;5046940;28;20046;-55
2023/07/21 01:29:50;;;;;;;8.48;3.72;;;16.80;99.90;;;;;;5042366;28;20231;-55
2023/07/21 01:32:18;;;;;;;6.28;3.92;;;16.90;99.90;;;;;;5031583;28;20046;-56
2023/07/21 01:34:45;;;;;;;16.98;4.90;;;16.90;99.90;;;;;;5041990;28;20055;-51
2023/07/21 01:37:13;;;;;;;9.93;4.38;;;16.90;99.90;;;;;;5034173;28;20076;-52
2023/07/21 01:39:40;;;;;;;8.52;3.47;;;16.80;99.90;;;;;;5025781;28;20053;-54
2023/07/21 01:42:07;;;;;;;11.05;4.13;;;16.90;99.90;;;;;;5041799;28;20072;-53
2023/07/21 01:44:34;;;;;;;7.38;4.95;;;16.80;99.90;;;;;;5041736;28;20080;-54
2023/07/21 01:47:01;;;;;;;7.20;4.18;;;16.80;99.90;;;;;;5036292;28;20209;-53
2023/07/21 01:49:30;;;;;;;8.10;4.28;;;16.80;99.90;;;;;;5036221;28;20040;-51
2023/07/21 01:51:58;;;;;;;7.07;4.50;;;16.80;99.90;;;;;;5037483;28;20049;-52
2023/07/21 01:54:54;;;;;;;8.80;4.53;;;16.70;99.90;;;;;;5036613;28;20037;-54
2023/07/21 01:57:26;;;;;;;7.25;4.43;;;16.60;99.90;;;;;;5033094;28;20057;-53
2023/07/21 01:59:53;;;;;;;10.13;4.90;;;16.60;99.90;;;;;;5042240;28;20040;-53
2023/07/21 02:02:20;;;;;;;6.85;4.45;;;16.60;99.90;;;;;;5021628;28;20045;-52
2023/07/21 02:04:50;;;;;;;10.07;4.85;;;16.60;99.90;;;;;;5040456;28;20053;-54
2023/07/21 02:07:20;;;;;;;9.88;5.70;;;16.70;99.90;;;;;;5037120;28;20413;-52
2023/07/21 02:09:49;;;;;;;7.68;4.78;;;16.70;99.90;;;;;;5043631;28;20616;-53
2023/07/21 02:12:16;;;;;;;9.07;4.60;;;16.60;99.90;;;;;;5038566;28;20049;-55
2023/07/21 02:14:43;;;;;;;8.55;5.00;;;16.60;99.90;;;;;;5044496;28;20519;-54
2023/07/21 02:17:10;;;;;;;12.02;5.45;;;16.60;99.90;;;;;;5020308;28;20331;-53
2023/07/21 02:19:37;;;;;;;9.30;5.22;;;16.50;99.90;;;;;;5046294;28;20389;-55
2023/07/21 02:22:04;;;;;;;11.45;5.82;;;16.50;99.90;;;;;;5041601;28;20099;-55
2023/07/21 02:24:31;;;;;;;10.68;6.18;;;16.40;99.90;;;;;;5030124;28;20053;-53
2023/07/21 02:26:59;;;;;;;7.78;5.00;;;16.40;99.90;;;;;;5035977;28;20052;-52
2023/07/21 02:29:27;;;;;;;7.80;4.78;;;16.40;99.90;;;;;;5038780;28;20065;-51
2023/07/21 02:31:54;;;;;;;10.63;5.65;;;16.40;99.90;;;;;;5047399;28;20045;-54
2023/07/21 02:34:21;;;;;;;11.05;6.57;;;16.40;99.90;;;;;;5048882;28;20040;-54
2023/07/21 02:36:48;;;;;;;9.23;5.72;;;16.30;99.90;;;;;;5047751;28;20045;-55
2023/07/21 02:39:14;;;;;;;9.10;5.70;;;16.30;99.90;;;;;;5047533;28;20063;-53
2023/07/21 02:41:42;;;;;;;9.52;5.75;;;16.30;99.90;;;;;;5040241;28;20496;-54
2023/07/21 02:44:09;;;;;;;8.85;5.40;;;16.30;99.90;;;;;;5042918;28;20048;-52
2023/07/21 02:46:36;;;;;;;8.13;5.75;;;16.40;99.90;;;;;;5039917;28;20048;-54
2023/07/21 02:49:03;;;;;;;8.48;5.78;;;16.30;99.90;;;;;;5036748;28;20045;-54
2023/07/21 02:51:30;;;;;;;9.68;5.75;;;16.40;99.90;;;;;;5035970;28;20045;-52
2023/07/21 02:53:57;;;;;;;9.75;6.15;;;16.30;99.90;;;;;;5038392;28;20049;-52
2023/07/21 02:56:24;;;;;;;8.75;5.95;;;16.20;99.90;;;;;;5042786;28;20044;-53
2023/07/21 02:58:51;;;;;;;10.95;5.85;;;16.20;99.90;;;;;;5036311;28;20045;-53
2023/07/21 03:01:18;;;;;;;12.45;6.45;;;16.20;99.90;;;;;;5042295;28;20060;-52
2023/07/21 03:03:44;;;;;;;8.65;6.18;;;16.10;99.90;;;;;;5046937;28;20045;-52
2023/07/21 03:06:12;;;;;;;10.20;6.25;;;16.10;99.90;;;;;;5046047;28;20415;-53
2023/07/21 03:08:38;;;;;;;9.93;5.53;;;16.10;99.90;;;;;;5041278;28;20037;-53
2023/07/21 03:11:05;;;;;;;9.80;6.38;;;16.10;99.90;;;;;;5029777;28;20045;-54
2023/07/21 03:13:32;;;;;;;11.93;6.35;;;16.00;99.90;;;;;;5035445;28;20103;-53
2023/07/21 03:16:00;;;;;;;6.85;5.95;;;16.00;99.90;;;;;;5047120;28;20054;-54
2023/07/21 03:18:27;;;;;;;9.45;6.28;;;16.00;99.90;;;;;;5041634;28;20218;-51
2023/07/21 03:21:01;;;;;;;11.60;6.63;;;16.00;99.90;;;;;;5028153;28;20049;-54
2023/07/21 03:23:28;;;;;;;10.60;5.97;;;16.00;99.90;;;;;;5041609;28;20047;-52
2023/07/21 03:25:55;;;;;;;15.40;7.03;;;15.90;99.90;;;;;;5048519;28;20045;-54
2023/07/21 03:28:22;;;;;;;10.90;5.80;;;15.90;99.90;;;;;;5035832;28;20052;-52
2023/07/21 03:30:58;;;;;;;9.80;6.97;;;15.90;99.90;;;;;;5042297;28;20056;-51
2023/07/21 03:33:25;;;;;;;8.52;6.47;;;15.90;99.90;;;;;;5042591;28;20041;-48
2023/07/21 03:36:00;;;;;;;16.83;7.72;;;15.80;99.90;;;;;;5033850;28;20072;-54
2023/07/21 03:38:30;;;;;;;13.80;6.57;;;15.80;99.90;;;;;;5034919;28;20391;-51
2023/07/21 03:41:01;;;;;;;9.55;7.05;;;15.70;99.90;;;;;;5042051;28;20259;-54
2023/07/21 03:43:28;;;;;;;10.50;7.60;;;15.70;99.90;;;;;;5040344;28;20557;-52
2023/07/21 03:45:58;;;;;;;12.05;7.75;;;15.70;99.90;;;;;;5036327;28;20049;-50
2023/07/21 03:48:26;;;;;;;11.75;6.68;;;15.70;99.90;;;;;;5036124;28;20404;-52
2023/07/21 03:51:01;;;;;;;8.82;6.45;;;15.60;99.90;;;;;;5037709;28;20056;-54
2023/07/21 03:53:29;;;;;;;11.25;7.25;;;15.60;99.90;;;;;;5035940;28;20049;-52
2023/07/21 03:56:04;;;;;;;11.07;7.03;;;15.50;99.90;;;;;;5038187;28;20084;-52
2023/07/21 03:58:30;;;;;;;8.55;5.93;;;15.50;99.90;;;;;;5040472;28;20128;-53
2023/07/21 04:00:59;;;;;;;13.32;7.18;;;15.50;99.90;;;;;;5035527;28;20060;-52
2023/07/21 04:03:26;;;;;;;17.55;7.72;;;15.50;99.90;;;;;;5039586;28;20148;-53
2023/07/21 04:05:53;;;;;;;15.57;6.95;;;15.50;99.90;;;;;;5033385;28;20496;-54
2023/07/21 04:08:20;;;;;;;11.57;7.55;;;15.40;99.90;;;;;;5032216;28;20669;-55
2023/07/21 04:10:47;;;;;;;11.73;6.72;;;15.40;99.90;;;;;;5032522;28;20037;-52
2023/07/21 04:13:14;;;;;;;10.15;7.05;;;15.40;99.90;;;;;;5046193;28;20067;-52
2023/07/21 04:15:41;;;;;;;12.15;7.30;;;15.30;99.90;;;;;;5046561;28;20051;-53
2023/07/21 04:18:08;;;;;;;11.63;7.30;;;15.20;99.90;;;;;;5033551;28;20512;-53
2023/07/21 04:20:35;;;;;;;15.02;7.72;;;15.20;99.90;;;;;;5045011;28;20514;-53
2023/07/21 04:23:03;;;;;;;13.48;7.28;;;15.30;99.90;;;;;;5032876;28;20153;-53
2023/07/21 04:25:32;;;;;;;12.00;7.60;;;15.30;99.90;;;;;;5038409;28;20115;-54
2023/07/21 04:27:58;;;;;;;12.55;7.45;;;15.30;99.90;;;;;;5048841;28;20543;-55
2023/07/21 04:30:26;;;;;;;10.48;6.55;;;15.30;99.90;;;;;;5042762;28;20477;-54
2023/07/21 04:32:53;;;;;;;11.32;7.47;;;15.20;99.90;;;;;;5050558;28;20044;-51
2023/07/21 04:35:20;;;;;;;16.17;7.85;;;15.10;99.90;;;;;;5041874;28;20052;-52
2023/07/21 04:37:49;;;;;;;14.80;7.45;;;15.20;99.90;;;;;;5044246;28;20514;-52
2023/07/21 04:40:17;;;;;;;11.55;7.45;;;15.20;99.90;;;;;;5042963;28;20286;-55
2023/07/21 04:42:45;;;;;;;15.73;8.32;;;15.20;99.90;;;;;;5038593;28;20045;-53
2023/07/21 04:45:11;;;;;;;11.88;7.63;;;15.10;99.90;;;;;;5043005;28;20053;-53
2023/07/21 04:47:40;;;;;;;13.30;8.60;;;15.20;99.90;;;;;;5040315;28;20049;-50
2023/07/21 04:50:07;;;;;;;11.80;7.75;;;15.20;99.90;;;;;;5045158;28;20111;-53
2023/07/21 04:52:37;;;;;;;12.10;6.85;;;15.20;99.90;;;;;;5039834;28;20041;-55
2023/07/21 04:55:05;;;;;;;10.80;7.53;;;15.20;99.90;;;;;;5045122;28;20385;-54
2023/07/21 04:57:33;;;;;;;10.25;7.40;;;15.10;99.90;;;;;;5049343;28;20048;-54
2023/07/21 04:59:59;;;;;;;15.30;8.18;;;15.20;99.90;;;;;;5046182;28;20045;-54
2023/07/21 05:02:28;;;;;;;16.80;9.00;;;15.20;99.90;;;;;;5044886;28;20503;-56
2023/07/21 05:04:59;;;;;;;11.68;7.63;;;15.30;99.90;;;;;;5046417;28;20049;-53
2023/07/21 05:07:26;;;;;;;13.15;8.02;;;15.20;99.90;;;;;;5036643;28;20348;-53
2023/07/21 05:09:55;;;;;;;12.00;7.10;;;15.20;99.90;;;;;;5048790;28;20057;-53
2023/07/21 05:12:24;;;;;;;11.38;7.43;;;15.20;99.90;;;;;;5043483;28;20045;-55
2023/07/21 05:14:51;;;;;;;12.90;7.43;;;15.20;99.90;;;;;;5048853;28;20048;-53
2023/07/21 05:17:18;;;;;;;14.35;8.00;;;15.20;99.90;;;;;;5043436;28;20503;-53
2023/07/21 05:19:45;;;;;;;9.73;7.50;;;15.30;99.90;;;;;;5032166;28;20146;-54
2023/07/21 05:22:12;;;;;;;13.63;7.55;;;15.30;99.90;;;;;;5037924;28;20052;-55
2023/07/21 05:24:42;;;;;;;12.57;8.00;;;15.40;99.90;;;;;;5045596;28;20067;-53
2023/07/21 05:27:10;;;;;;;13.68;8.23;;;15.40;99.90;;;;;;5041278;28;20144;-53
2023/07/21 05:29:37;;;;;;;14.48;7.90;;;15.50;99.90;;;;;;5034888;28;20045;-54
2023/07/21 05:32:05;;;;;;;13.60;7.85;;;15.50;99.90;;;;;;5035848;28;20128;-51
2023/07/21 05:34:33;;;;;;;19.60;8.35;;;15.50;99.90;;;;;;5049042;28;20512;-54
2023/07/21 05:37:00;;;;;;;13.05;8.38;;;15.40;99.90;;;;;;4693432;28;10000213;-52
2023/07/21 05:39:29;;;;;;;15.63;8.95;;;15.50;99.90;;;;;;5036531;28;20084;-54
2023/07/21 05:41:57;;;;;;;15.13;9.45;;;15.50;99.90;;;;;;5038881;28;20406;-54
2023/07/21 05:44:24;;;;;;;17.40;8.30;;;15.60;99.90;;;;;;5036971;28;20052;-53
2023/07/21 05:46:51;;;;;;;14.18;8.07;;;15.60;99.90;;;;;;5033708;28;20052;-53
2023/07/21 05:49:18;;;;;;;13.65;8.73;;;15.60;99.90;;;;;;5045394;28;20064;-55
2023/07/21 05:51:45;;;;;;;16.05;9.23;;;15.60;99.90;;;;;;5040467;28;20470;-53
2023/07/21 05:54:12;;;;;;;11.02;7.15;;;15.60;99.90;;;;;;5045985;28;20055;-55
2023/07/21 05:56:39;;;;;;;15.98;8.45;;;15.50;99.90;;;;;;5045010;28;20562;-55
2023/07/21 05:59:06;;;;;;;18.10;8.48;;;15.50;99.90;;;;;;5040126;28;20516;-54
2023/07/21 06:01:36;;;;;;;20.10;8.25;;;15.50;99.90;;;;;;5031130;28;20053;-56
2023/07/21 06:04:04;;;;;;;13.95;7.80;;;15.60;99.90;;;;;;5042046;28;20044;-53
2023/07/21 06:06:31;;;;;;;20.95;8.98;;;15.60;99.90;;;;;;5042701;28;20139;-54
2023/07/21 06:08:59;;;;;;;15.13;8.40;;;15.70;99.90;;;;;;5036983;28;20052;-52
2023/07/21 06:11:26;;;;;;;14.23;8.52;;;15.80;99.90;;;;;;5035232;28;20068;-56
2023/07/21 06:13:54;;;;;;;21.10;8.48;;;15.90;99.90;;;;;;5036699;28;20045;-56
2023/07/21 06:16:24;;;;;;;9.82;7.55;;;16.00;99.90;;;;;;5044371;28;20055;-56
2023/07/21 06:18:52;;;;;;;14.52;8.20;;;15.90;99.90;;;;;;5036986;28;20048;-56
2023/07/21 06:21:20;;;;;;;12.10;8.50;;;15.90;99.90;;;;;;5032740;28;20435;-52
2023/07/21 06:23:48;;;;;;;11.77;7.85;;;16.00;99.90;;;;;;5033907;28;20053;-55
2023/07/21 06:26:15;;;;;;;20.13;7.72;;;16.10;99.90;;;;;;5038456;28;20053;-62
2023/07/21 06:28:41;;;;;;;12.45;8.13;;;16.20;99.90;;;;;;5037799;28;20041;-53
2023/07/21 06:31:10;;;;;;;10.65;7.13;;;16.20;99.90;;;;;;5040906;28;20579;-55
2023/07/21 06:33:37;;;;;;;11.60;7.03;;;16.20;99.90;;;;;;5040228;28;20041;-56
2023/07/21 06:36:05;;;;;;;10.98;7.65;;;16.30;99.90;;;;;;5043348;28;20059;-54
2023/07/21 06:38:32;;;;;;;16.10;6.93;;;16.40;99.90;;;;;;5041256;28;20049;-55
2023/07/21 06:41:00;;;;;;;15.25;8.05;;;16.50;99.90;;;;;;5041036;28;20128;-55
2023/07/21 06:43:27;;;;;;;8.60;6.38;;;16.60;99.90;;;;;;5041668;28;20045;-56
2023/07/21 06:45:53;;;;;;;13.55;7.95;;;16.60;99.90;;;;;;5041751;28;20095;-53
2023/07/21 06:48:20;;;;;;;9.18;7.22;;;16.70;99.90;;;;;;5043699;28;20587;-55
2023/07/21 06:50:47;;;;;;;9.10;6.90;;;16.80;99.90;;;;;;5036630;28;20045;-53
2023/07/21 06:53:17;;;;;;;13.38;9.40;;;16.80;99.90;;;;;;5025018;28;20073;-52
2023/07/21 06:55:47;;;;;;;17.08;6.97;;;16.90;99.90;;;;;;5021541;28;20049;-53
2023/07/21 06:58:14;;;;;;;10.45;7.75;;;16.90;99.90;;;;;;5044859;28;20500;-53
2023/07/21 07:00:41;;;;;;;11.98;7.85;;;16.80;99.90;;;;;;5032680;28;20061;-57
2023/07/21 07:03:08;;;;;;;14.55;8.15;;;16.90;99.90;;;;;;5045372;28;20057;-50
2023/07/21 07:05:35;;;;;;;14.60;8.40;;;16.80;99.90;;;;;;5037239;28;20098;-54
2023/07/21 07:08:02;;;;;;;11.00;7.97;;;16.60;99.90;;;;;;5031055;28;20140;-56
2023/07/21 07:10:29;;;;;;;12.23;7.10;;;16.60;99.90;;;;;;5035041;28;20056;-56
2023/07/21 07:12:55;;;;;;;9.75;7.18;;;16.50;99.90;;;;;;5033197;28;20049;-53
2023/07/21 07:15:22;;;;;;;12.57;7.60;;;16.60;99.90;;;;;;5033963;28;20060;-54
2023/07/21 07:17:49;;;;;;;12.57;7.22;;;16.70;99.90;;;;;;5045237;28;20492;-53
2023/07/21 07:20:16;;;;;;;13.13;7.40;;;16.80;99.90;;;;;;5037862;28;20059;-50
2023/07/21 07:22:44;;;;;;;12.57;7.45;;;16.90;99.90;;;;;;5036897;28;20049;-60
2023/07/21 07:25:11;;;;;;;12.13;7.85;;;16.80;99.90;;;;;;5030144;28;20069;-54
2023/07/21 07:27:38;;;;;;;12.48;7.28;;;16.80;99.90;;;;;;5034213;28;20071;-54
2023/07/21 07:30:06;;;;;;;10.13;6.30;;;16.80;99.90;;;;;;5041394;28;20587;-51
2023/07/21 07:32:34;;;;;;;8.68;6.22;;;16.70;99.90;;;;;;5043598;28;20135;-53
2023/07/21 07:35:01;;;;;;;9.27;6.47;;;16.70;99.90;;;;;;5042271;28;20051;-52
2023/07/21 07:37:28;;;;;;;8.25;6.68;;;16.70;99.90;;;;;;5030368;28;20049;-53
2023/07/21 07:39:55;;;;;;;8.07;6.95;;;16.70;99.90;;;;;;5026689;28;20480;-50
2023/07/21 07:42:23;;;;;;;16.55;7.32;;;16.70;99.90;;;;;;5032359;28;20053;-55
2023/07/21 07:44:55;;;;;;;9.88;6.20;;;16.70;99.90;;;;;;5034007;28;20052;-56
2023/07/21 07:47:22;;;;;;;9.35;6.57;;;16.70;99.90;;;;;;5041034;28;20660;-51
2023/07/21 07:49:49;;;;;;;11.40;6.45;;;16.60;99.90;;;;;;5044448;28;20041;-54
2023/07/21 07:52:18;;;;;;;11.13;6.90;;;16.60;99.90;;;;;;5038836;28;20072;-54
2023/07/21 07:54:45;;;;;;;10.30;7.10;;;16.50;99.90;;;;;;5027777;28;20053;-52
2023/07/21 07:57:12;;;;;;;10.80;6.72;;;16.50;99.90;;;;;;5031246;28;20590;-54
2023/07/21 07:59:39;;;;;;;9.60;7.07;;;16.60;99.90;;;;;;5037836;28;20059;-55
2023/07/21 08:02:06;;;;;;;13.13;6.60;;;16.60;99.90;;;;;;5039140;28;20053;-54
2023/07/21 08:04:33;;;;;;;13.48;7.03;;;16.70;99.90;;;;;;5037354;28;20048;-56
2023/07/21 08:07:00;;;;;;;12.05;7.00;;;16.80;99.90;;;;;;5036741;28;20463;-53
2023/07/21 08:09:28;;;;;;;15.18;7.03;;;16.80;99.90;;;;;;5034783;28;20042;-55
2023/07/21 08:11:56;;;;;;;11.13;6.47;;;16.80;99.90;;;;;;5030941;28;20046;-53
2023/07/21 08:14:26;;;;;;;12.85;6.72;;;16.90;99.90;;;;;;5032790;28;20081;-53
2023/07/21 08:16:52;;;;;;;12.68;6.90;;;16.80;99.90;;;;;;5037538;28;20056;-57
2023/07/21 08:19:20;;;;;;;9.98;6.07;;;16.90;99.90;;;;;;5038474;28;20053;-51
2023/07/21 08:21:48;;;;;;;17.08;6.63;;;17.00;99.90;;;;;;5028788;28;20053;-60
2023/07/21 08:24:15;;;;;;;11.07;6.15;;;17.00;99.90;;;;;;5041278;28;20087;-55
2023/07/21 08:26:42;;;;;;;10.32;6.22;;;17.00;99.90;;;;;;5042803;28;20048;-52
2023/07/21 08:29:09;;;;;;;6.93;5.60;;;17.10;99.90;;;;;;5037222;28;20375;-55
2023/07/21 08:31:36;;;;;;;7.85;5.40;;;17.30;99.90;;;;;;5024902;28;20072;-54
2023/07/21 08:34:03;;;;;;;8.90;6.53;;;17.40;99.80;;;;;;5031887;28;20424;-54
2023/07/21 08:36:30;;;;;;;10.98;6.30;;;17.40;98.90;;;;;;5042986;28;20053;-56
2023/07/21 08:39:17;;;;;;;7.93;5.75;;;17.40;99.00;;;;;;5039549;28;20085;-52
2023/07/21 08:41:45;;;;;;;8.77;5.97;;;17.40;98.90;;;;;;5026292;28;20053;-55
2023/07/21 08:44:13;;;;;;;10.35;6.25;;;17.30;98.70;;;;;;5031383;28;20119;-54
2023/07/21 08:46:40;;;;;;;10.30;6.60;;;17.30;98.60;;;;;;5041844;28;20049;-54
2023/07/21 08:49:07;;;;;;;8.68;6.07;;;17.40;99.10;;;;;;5037687;28;20049;-55
2023/07/21 08:51:37;;;;;;;8.07;6.18;;;17.60;98.50;;;;;;5026900;28;20045;-53
2023/07/21 08:54:04;;;;;;;9.82;5.80;;;17.80;98.60;;;;;;5031220;28;20045;-55
2023/07/21 08:56:31;;;;;;;8.88;6.43;;;18.10;99.00;;;;;;5038401;28;20499;-54
2023/07/21 08:58:58;;;;;;;12.85;6.18;;;18.30;98.70;;;;;;5036226;28;20045;-53
2023/07/21 09:01:25;;;;;;;11.80;6.13;;;18.60;98.20;;;;;;5035266;28;20046;-53
2023/07/21 09:03:52;;;;;;;8.23;6.15;;;18.30;97.40;;;;;;5035494;28;20048;-54
2023/07/21 09:06:19;;;;;;;9.70;7.00;;;18.10;97.90;;;;;;5040521;28;20507;-53
2023/07/21 09:08:49;;;;;;;7.90;5.95;;;18.10;97.70;;;;;;5033633;28;20051;-54
2023/07/21 09:11:16;;;;;;;10.10;7.13;;;18.10;97.30;;;;;;5038251;28;20072;-50
2023/07/21 09:13:51;;;;;;;9.40;6.07;;;18.20;98.30;;;;;;5040273;28;20112;-54
2023/07/21 09:16:19;;;;;;;17.20;8.23;;;18.50;97.40;;;;;;5039297;28;20071;-52
2023/07/21 09:18:47;;;;;;;11.20;6.22;;;18.50;97.90;;;;;;5030056;28;20055;-52
2023/07/21 09:21:23;;;;;;;11.02;7.07;;;18.60;97.80;;;;;;5036985;28;20049;-55
2023/07/21 09:23:51;;;;;;;9.43;6.18;;;18.50;97.20;;;;;;5030645;28;20587;-51
2023/07/21 09:26:21;;;;;;;8.27;6.20;;;18.50;97.70;;;;;;5034627;28;20076;-54
2023/07/21 09:28:50;;;;;;;9.45;7.15;;;18.60;97.20;;;;;;5045224;28;20045;-52
2023/07/21 09:31:16;;;;;;;21.38;6.82;;;18.80;96.60;;;;;;5038283;28;20511;-51
2023/07/21 09:33:44;;;;;;;8.65;5.68;;;18.90;96.70;;;;;;5045445;28;20076;-55
2023/07/21 09:36:13;;;;;;;11.23;6.53;;;19.00;96.40;;;;;;5039509;28;20049;-53
2023/07/21 09:38:40;;;;;;;10.55;6.70;;;19.00;96.90;;;;;;5040661;28;20049;-53
2023/07/21 09:41:11;;;;;;;9.85;6.10;;;19.00;96.60;;;;;;5044363;28;20048;-51
2023/07/21 09:43:38;;;;;;;9.98;5.80;;;18.80;95.80;;;;;;5044441;28;20049;-52
2023/07/21 09:46:13;;;;;;;12.23;6.50;;;18.80;96.30;;;;;;5040339;28;20546;-52
2023/07/21 09:48:44;;;;;;;10.18;6.60;;;19.10;96.50;;;;;;5029678;28;20132;-52
2023/07/21 09:51:12;;;;;;;11.85;5.75;;;19.40;95.70;;;;;;5038832;28;20099;-54
2023/07/21 09:53:40;;;;;;;12.00;6.20;;;19.60;95.90;;;;;;5046926;28;20073;-51
2023/07/21 09:56:08;;;;;;;7.97;5.53;;;19.70;95.00;;;;;;5037588;28;20049;-53
2023/07/21 09:58:41;;;;;;;7.78;6.10;;;19.70;95.10;;;;;;5031576;28;20052;-53
2023/07/21 10:01:11;;;;;;;8.18;5.35;;;19.70;95.00;;;;;;5033540;28;20049;-53
2023/07/21 10:03:41;;;;;;;10.85;6.10;;;19.50;94.60;;;;;;5039785;28;20077;-51
2023/07/21 10:06:09;;;;;;;10.75;6.18;;;19.20;94.20;;;;;;5034876;28;20456;-52
2023/07/21 10:08:36;;;;;;;8.68;5.43;;;19.10;95.10;;;;;;5038406;28;20514;-55
2023/07/21 10:11:04;;;;;;;6.60;5.72;;;19.20;95.40;;;;;;5037104;28;20049;-54
2023/07/21 10:13:32;;;;;;;7.13;5.22;;;19.60;95.30;;;;;;5031375;28;20076;-54
2023/07/21 10:16:01;;;;;;;10.30;5.57;;;19.70;94.90;;;;;;5032069;28;20053;-55
2023/07/21 10:18:28;;;;;;;8.10;5.07;;;20.00;94.70;;;;;;5037543;28;20045;-59
2023/07/21 10:20:56;;;;;;;6.88;4.65;;;20.00;94.00;;;;;;5030801;28;20489;-54
2023/07/21 10:23:24;;;;;;;7.03;4.50;;;20.00;95.00;;;;;;5043475;28;20044;-55
2023/07/21 10:25:52;;;;;;;6.20;4.60;;;20.50;94.00;;;;;;5043270;28;20068;-54
2023/07/21 10:28:31;;;;;;;8.82;4.85;;;20.60;93.30;;;;;;5034243;28;20059;-52
2023/07/21 10:31:21;;;;;;;6.72;5.22;;;20.90;93.40;;;;;;5040764;28;20045;-55
2023/07/21 10:34:04;;;;;;;5.70;4.40;;;20.70;92.60;;;;;;5029798;28;20052;-50
2023/07/21 10:37:02;;;;;;;10.40;5.93;;;21.00;93.50;;;;;;5043706;28;20053;-50
2023/07/21 10:39:31;;;;;;;10.38;6.05;;;21.20;93.10;;;;;;5025432;28;20496;-51
2023/07/21 10:42:08;;;;;;;6.38;5.35;;;21.20;93.90;;;;;;5032907;28;20115;-56
2023/07/21 10:44:38;;;;;;;11.75;5.15;;;21.50;93.20;;;;;;5035781;28;20052;-56
2023/07/21 10:47:18;;;;;;;5.75;4.75;;;21.70;93.00;;;;;;5040254;28;20049;-54
2023/07/21 10:49:46;;;;;;;7.60;4.22;;;21.50;92.90;;;;;;5034275;28;20358;-53
2023/07/21 10:52:14;;;;;;;9.23;5.63;;;21.30;93.10;;;;;;5038998;28;20056;-54
2023/07/21 10:54:40;;;;;;;6.95;4.32;;;21.40;93.30;;;;;;5037515;28;20345;-51
2023/07/21 10:57:08;;;;;;;9.20;4.72;;;21.50;93.10;;;;;;5029922;28;20041;-53
2023/07/21 10:59:37;;;;;;;8.10;4.38;;;21.00;92.40;;;;;;5042642;28;20068;-53
2023/07/21 11:02:06;;;;;;;9.50;5.63;;;21.00;93.10;;;;;;5042200;28;20057;-54
2023/07/21 11:04:35;;;;;;;7.63;4.60;;;20.60;93.10;;;;;;5033160;28;20076;-51
2023/07/21 11:07:03;;;;;;;6.53;4.78;;;20.30;93.40;;;;;;5044139;28;20128;-51
2023/07/21 11:09:33;;;;;;;7.28;5.35;;;20.10;94.00;;;;;;5038717;28;20049;-55
2023/07/21 11:12:03;;;;;;;6.93;4.25;;;20.30;94.20;;;;;;5027073;28;20053;-53
2023/07/21 11:14:31;;;;;;;5.93;4.53;;;20.60;93.80;;;;;;5014175;28;20135;-52
2023/07/21 11:16:59;;;;;;;8.25;4.18;;;20.30;93.50;;;;;;5043059;28;20052;-52
2023/07/21 11:19:28;;;;;;;6.90;4.38;;;20.40;93.70;;;;;;5038735;28;20135;-51
2023/07/21 11:21:55;;;;;;;9.63;4.25;;;20.60;93.90;;;;;;5028818;28;20080;-54
2023/07/21 11:24:29;;;;;;;8.98;3.90;;;20.70;93.30;;;;;;5038620;28;20053;-54
2023/07/21 11:27:01;;;;;;;8.50;4.32;;;20.60;93.40;;;;;;5027231;28;20120;-53
2023/07/21 11:29:39;;;;;;;8.75;4.35;;;20.80;93.30;;;;;;5035828;28;20049;-52
2023/07/21 11:32:16;;;;;;;7.03;3.80;;;20.90;93.10;;;;;;5041774;28;20045;-54
2023/07/21 11:34:43;;;;;;;6.72;3.83;;;20.90;92.20;;;;;;5035592;28;20563;-53
2023/07/21 11:37:12;;;;;;;5.68;3.33;;;20.80;92.80;;;;;;5033456;28;20057;-51
2023/07/21 11:39:39;;;;;;;6.70;3.60;;;20.80;92.60;;;;;;5035733;28;20068;-52
2023/07/21 11:42:06;;;;;;;4.57;2.67;;;20.90;92.20;;;;;;5037324;28;20084;-54
2023/07/21 11:44:35;;;;;;;4.32;2.50;;;21.10;91.80;;;;;;5026017;28;20452;-55
2023/07/21 11:47:09;;;;;;;6.30;2.95;;;21.00;91.50;;;;;;5044566;28;20427;-55
2023/07/21 11:49:39;;;;;;;;;;;21.00;91.70;;;;;;5035937;28;20110;-56
2023/07/21 11:52:07;;;;;;;4.38;2.72;;;21.10;91.20;;;;;;5036409;28;19948;-53
2023/07/21 11:54:44;;;;;;;4.75;2.83;;;21.10;91.80;;;;;;5038884;28;20068;-55
2023/07/21 11:57:11;;;;;;;3.15;2.72;;;20.90;91.30;;;;;;5040019;28;20111;-55
2023/07/21 11:59:50;;;;;;;5.15;3.28;;;21.10;91.80;;;;;;5036956;28;20049;-56
2023/07/21 12:02:17;;;;;;;4.72;2.90;;;21.40;91.70;;;;;;5035839;28;20052;-57
2023/07/21 12:04:44;;;;;;;4.72;2.85;;;21.50;90.80;;;;;;5036839;28;20091;-54
2023/07/21 12:07:12;;;;;;;5.65;2.53;;;21.40;90.80;;;;;;5044021;28;20458;-53
2023/07/21 12:09:39;;;;;;;6.13;2.92;;;21.10;91.40;;;;;;5039893;28;20045;-53
2023/07/21 12:12:07;;;;;;;3.40;3.00;;;21.00;91.70;;;;;;5035681;28;20058;-52
2023/07/21 12:14:34;;;;;;;4.25;2.67;;;20.90;91.50;;;;;;5027760;28;20049;-53
2023/07/21 12:17:01;;;;;;;4.10;2.60;;;21.00;91.50;;;;;;5044700;28;20107;-54
2023/07/21 12:19:29;;;;;;;6.65;2.33;;;21.10;91.20;;;;;;5038859;28;20114;-54
2023/07/21 12:21:59;;;;;;;5.78;3.65;;;21.10;91.30;;;;;;5032243;28;20049;-53
2023/07/21 12:24:26;;;;;;;6.95;3.67;;;21.00;91.70;;;;;;5043191;28;20057;-56
2023/07/21 12:26:53;;;;;;;4.15;2.78;;;20.90;91.90;;;;;;5037979;28;20118;-52
2023/07/21 12:29:20;;;;;;;10.18;3.13;;;21.10;92.20;;;;;;5025754;28;20501;-52
2023/07/21 12:32:07;;;;;;;5.18;3.17;;;21.40;91.30;;;;;;5027557;28;20089;-52
2023/07/21 12:34:34;;;;;;;4.47;3.38;;;21.30;91.90;;;;;;5043384;28;20045;-53
2023/07/21 12:37:02;;;;;;;5.55;3.83;;;21.00;91.50;;;;;;5041770;28;20057;-55
2023/07/21 12:39:29;;;;;;;7.25;3.75;;;21.00;91.90;;;;;;5045029;28;20055;-55
2023/07/21 12:41:56;;;;;;;3.97;2.63;;;20.70;92.00;;;;;;5037482;28;20140;-54
2023/07/21 12:44:23;;;;;;;3.42;2.65;;;20.50;92.30;;;;;;5043956;28;20467;-53
2023/07/21 12:46:50;;;;;;;5.18;3.33;;;20.50;92.30;;;;;;5042608;28;20069;-51
2023/07/21 12:49:17;;;;;;;5.72;2.92;;;20.60;92.40;;;;;;5046736;28;20055;-49